• Join FlightAware (Why Join?)
  • Login
  • US Flag 
12:46AM EST


 

Airport Tracker/Info


-or-


 

Live Flight TrackerFlight Track Log ✈ ASQ5024 ✈ 09-Jul-2013 ✈ KAGS - KATL

Flight Track Log - Related Links

Times and Time Zones

All times are in EDT time to prevent confusion due to time zone crossing. See the ASQ5024 flight status page for this flight to view local times or setup timezone preferences in your user account.

Time Position Orientation Groundspeed Altitude Reporting Facility
EDT Latitude Longitude Course Direction KTS MPH feet Rate Location/Type
01:09PM 33.3078 -82.0006 266° West 217 250 3,000  Level Atlanta Center
01:10PM 33.3028 -82.0803 266° West 233 268 4,900 2,150 Climbing Atlanta Center
01:11PM 33.3000 -82.1697 268° West 255 293 7,300 2,400 Climbing Atlanta Center
01:12PM 33.2931 -82.2644 265° West 276 318 9,700 1,900 Climbing Atlanta Center
01:13PM 33.2881 -82.3589 266° West 289 333 11,100 1,150 Climbing Atlanta Center
01:14PM 33.2833 -82.4758 267° West 319 367 12,000 1,050 Climbing Atlanta Center
01:15PM 33.2764 -82.5953 266° West 347 399 13,200 1,300 Climbing Atlanta Center
01:16PM 33.2717 -82.7169 267° West 369 425 14,600 1,400 Climbing Atlanta Center
01:17PM 33.2644 -82.8389 266° West 369 425 16,000 1,450 Climbing Atlanta Center
01:18PM 33.2594 -82.9781 268° West 369 425 17,500 950 Climbing Atlanta Center
01:19PM 33.2542 -83.0972 267° West 369 425 17,900 -350 Climbing Atlanta Center
01:20PM 33.2489 -83.2167 267° West 369 425 16,800 -1,050 Descending Atlanta Center
01:21PM 33.2433 -83.3408 267° West 369 425 15,800 -1,150 Descending Atlanta Center
01:22PM 33.2356 -83.4675 266° West 379 436 14,500 -1,200 Descending Atlanta Center
01:23PM 33.2278 -83.5869 266° West 374 430 13,400 -1,111 Descending Atlanta Center
01:24PM 33.2167 -83.6833 262° West 356 410 12,500 -874 Descending Atlanta TRACON
01:25PM 33.2167 -83.7833 270° West 320 368 11,900 -470 Descending Atlanta TRACON
01:26PM 33.2667 -83.8500 312° West 299 344 11,600 -1,056 Descending Atlanta TRACON
01:27PM 33.3500 -83.9000 333° Northwest 294 338 9,700 -2,016 Descending Atlanta TRACON
01:28PM 33.3667 -83.9833 283° West 273 314 7,400 -2,182 Descending Atlanta TRACON
01:29PM 33.4333 -84.0333 328° Northwest 276 318 5,300 -1,619 Descending Atlanta TRACON
01:30PM 33.5000 -84.0833 328° Northwest 241 277 4,000 -655 Descending Atlanta TRACON
01:31PM 33.5500 -84.1167 331° Northwest 220 253 4,000 -261 Level Atlanta TRACON
01:32PM 33.5833 -84.1500 320° Northwest 192 221 3,500 -591 Descending Atlanta TRACON
01:33PM 33.6167 -84.2167 301° West 188 216 2,700 -432 Descending Atlanta TRACON
01:34PM 33.6167 -84.2833 270° West 188 216 2,600 -209 Descending Atlanta TRACON
01:35PM 33.6167 -84.3333 270° West 177 204 2,300 -545 Descending Atlanta TRACON
01:36PM 33.6167 -84.3833 270° West 146 168 1,500 -800 Descending Atlanta TRACON
01:38PM 33.6367 -84.4279 236° Southwest  Level Estimated
01:45PM 33.6367 -84.4279 64° Northeast  Level Estimated